sensor_id;sensor_type;location;lat;lon;timestamp;temperature;humidity
49711;DHT22;35602;44.534;18.696;2022-07-15T00:04:44;26.50;47.10
49711;DHT22;35602;44.534;18.696;2022-07-15T00:09:45;26.60;47.10
49711;DHT22;35602;44.534;18.696;2022-07-15T00:15:05;26.50;47.20
49711;DHT22;35602;44.534;18.696;2022-07-15T00:20:07;26.60;47.30
49711;DHT22;35602;44.534;18.696;2022-07-15T00:25:09;26.50;47.20
49711;DHT22;35602;44.534;18.696;2022-07-15T00:30:10;26.50;47.20
49711;DHT22;35602;44.534;18.696;2022-07-15T00:35:11;26.50;47.10
49711;DHT22;35602;44.534;18.696;2022-07-15T00:40:12;26.50;47.30
49711;DHT22;35602;44.534;18.696;2022-07-15T00:45:21;26.50;47.30
49711;DHT22;35602;44.534;18.696;2022-07-15T00:50:25;26.50;47.30
49711;DHT22;35602;44.534;18.696;2022-07-15T00:55:28;26.50;47.30
49711;DHT22;35602;44.534;18.696;2022-07-15T01:00:31;26.50;47.40
49711;DHT22;35602;44.534;18.696;2022-07-15T01:05:32;26.50;47.40
49711;DHT22;35602;44.534;18.696;2022-07-15T01:10:34;26.50;47.50
49711;DHT22;35602;44.534;18.696;2022-07-15T01:15:36;26.50;47.80
49711;DHT22;35602;44.534;18.696;2022-07-15T01:20:41;26.50;47.70
49711;DHT22;35602;44.534;18.696;2022-07-15T01:25:42;26.50;47.40
49711;DHT22;35602;44.534;18.696;2022-07-15T01:30:45;26.50;47.60
49711;DHT22;35602;44.534;18.696;2022-07-15T01:35:46;26.50;47.60
49711;DHT22;35602;44.534;18.696;2022-07-15T01:40:46;26.50;47.60
49711;DHT22;35602;44.534;18.696;2022-07-15T01:45:47;26.50;47.60
49711;DHT22;35602;44.534;18.696;2022-07-15T01:50:48;26.50;47.70
49711;DHT22;35602;44.534;18.696;2022-07-15T01:55:49;26.50;47.70
49711;DHT22;35602;44.534;18.696;2022-07-15T02:00:50;26.50;47.80
49711;DHT22;35602;44.534;18.696;2022-07-15T02:05:51;26.50;47.80
49711;DHT22;35602;44.534;18.696;2022-07-15T02:10:52;26.50;47.70
49711;DHT22;35602;44.534;18.696;2022-07-15T02:15:53;26.50;47.70
49711;DHT22;35602;44.534;18.696;2022-07-15T02:20:54;26.50;47.80
49711;DHT22;35602;44.534;18.696;2022-07-15T02:25:55;26.50;47.80
49711;DHT22;35602;44.534;18.696;2022-07-15T02:30:56;26.50;47.70
49711;DHT22;35602;44.534;18.696;2022-07-15T02:35:57;26.50;48.50
49711;DHT22;35602;44.534;18.696;2022-07-15T02:40:57;26.50;47.80
49711;DHT22;35602;44.534;18.696;2022-07-15T02:45:58;26.50;47.80
49711;DHT22;35602;44.534;18.696;2022-07-15T02:50:59;26.50;47.70
49711;DHT22;35602;44.534;18.696;2022-07-15T02:56:00;26.50;47.90
49711;DHT22;35602;44.534;18.696;2022-07-15T03:01:01;26.50;47.90
49711;DHT22;35602;44.534;18.696;2022-07-15T03:06:02;26.50;48.00
49711;DHT22;35602;44.534;18.696;2022-07-15T03:11:03;26.50;47.70
49711;DHT22;35602;44.534;18.696;2022-07-15T03:16:04;26.50;47.80
49711;DHT22;35602;44.534;18.696;2022-07-15T03:21:05;26.50;47.80
49711;DHT22;35602;44.534;18.696;2022-07-15T03:26:06;26.50;47.90
49711;DHT22;35602;44.534;18.696;2022-07-15T03:31:07;26.50;47.90
49711;DHT22;35602;44.534;18.696;2022-07-15T03:36:09;26.50;47.80
49711;DHT22;35602;44.534;18.696;2022-07-15T03:41:09;26.40;47.70
49711;DHT22;35602;44.534;18.696;2022-07-15T03:46:10;26.40;47.60
49711;DHT22;35602;44.534;18.696;2022-07-15T03:51:11;26.50;47.70
49711;DHT22;35602;44.534;18.696;2022-07-15T03:56:12;26.40;48.10
49711;DHT22;35602;44.534;18.696;2022-07-15T04:01:13;26.40;47.60
49711;DHT22;35602;44.534;18.696;2022-07-15T04:06:15;26.40;47.60
49711;DHT22;35602;44.534;18.696;2022-07-15T04:11:16;26.40;47.60
49711;DHT22;35602;44.534;18.696;2022-07-15T04:16:17;26.40;47.50
49711;DHT22;35602;44.534;18.696;2022-07-15T04:21:18;26.40;47.60
49711;DHT22;35602;44.534;18.696;2022-07-15T04:26:19;26.40;47.50
49711;DHT22;35602;44.534;18.696;2022-07-15T04:31:20;26.40;47.60
49711;DHT22;35602;44.534;18.696;2022-07-15T04:36:20;26.40;47.40
49711;DHT22;35602;44.534;18.696;2022-07-15T04:41:21;26.40;47.40
49711;DHT22;35602;44.534;18.696;2022-07-15T04:46:22;26.40;47.60
49711;DHT22;35602;44.534;18.696;2022-07-15T04:51:23;26.40;47.40
49711;DHT22;35602;44.534;18.696;2022-07-15T04:56:25;26.40;47.50
49711;DHT22;35602;44.534;18.696;2022-07-15T05:01:26;26.40;48.10
49711;DHT22;35602;44.534;18.696;2022-07-15T05:06:27;26.40;47.40
49711;DHT22;35602;44.534;18.696;2022-07-15T05:11:28;26.40;47.40
49711;DHT22;35602;44.534;18.696;2022-07-15T05:16:28;26.40;47.50
49711;DHT22;35602;44.534;18.696;2022-07-15T05:21:30;26.40;47.50
49711;DHT22;35602;44.534;18.696;2022-07-15T05:26:31;26.40;47.40
49711;DHT22;35602;44.534;18.696;2022-07-15T05:31:32;26.40;47.40
49711;DHT22;35602;44.534;18.696;2022-07-15T05:36:34;26.40;47.40
49711;DHT22;35602;44.534;18.696;2022-07-15T05:41:35;26.40;47.30
49711;DHT22;35602;44.534;18.696;2022-07-15T05:46:36;26.30;47.40
49711;DHT22;35602;44.534;18.696;2022-07-15T05:51:37;26.40;47.40
49711;DHT22;35602;44.534;18.696;2022-07-15T05:56:38;26.40;47.40
49711;DHT22;35602;44.534;18.696;2022-07-15T06:01:39;26.40;47.40
49711;DHT22;35602;44.534;18.696;2022-07-15T06:06:40;26.40;47.50
49711;DHT22;35602;44.534;18.696;2022-07-15T06:11:41;26.40;47.40
49711;DHT22;35602;44.534;18.696;2022-07-15T06:16:42;26.40;47.40
49711;DHT22;35602;44.534;18.696;2022-07-15T06:21:42;26.40;47.40
49711;DHT22;35602;44.534;18.696;2022-07-15T06:26:43;26.40;47.50
49711;DHT22;35602;44.534;18.696;2022-07-15T06:31:44;26.40;47.40
49711;DHT22;35602;44.534;18.696;2022-07-15T06:36:45;26.40;47.50
49711;DHT22;35602;44.534;18.696;2022-07-15T06:41:45;26.40;47.50
49711;DHT22;35602;44.534;18.696;2022-07-15T06:46:46;26.40;47.50
49711;DHT22;35602;44.534;18.696;2022-07-15T06:51:47;26.40;47.50
49711;DHT22;35602;44.534;18.696;2022-07-15T06:56:48;26.40;47.50
49711;DHT22;35602;44.534;18.696;2022-07-15T07:01:49;26.40;47.50
49711;DHT22;35602;44.534;18.696;2022-07-15T07:06:49;26.40;47.50
49711;DHT22;35602;44.534;18.696;2022-07-15T07:11:50;26.40;48.00
49711;DHT22;35602;44.534;18.696;2022-07-15T07:16:51;26.40;48.10
49711;DHT22;35602;44.534;18.696;2022-07-15T07:21:52;26.40;48.30
49711;DHT22;35602;44.534;18.696;2022-07-15T07:26:53;26.40;48.30
49711;DHT22;35602;44.534;18.696;2022-07-15T07:31:54;26.40;48.40
49711;DHT22;35602;44.534;18.696;2022-07-15T07:36:55;26.50;48.40
49711;DHT22;35602;44.534;18.696;2022-07-15T07:41:55;26.50;48.60
49711;DHT22;35602;44.534;18.696;2022-07-15T07:46:57;26.50;48.60
49711;DHT22;35602;44.534;18.696;2022-07-15T07:51:58;26.50;48.50
49711;DHT22;35602;44.534;18.696;2022-07-15T07:56:59;26.60;48.40
49711;DHT22;35602;44.534;18.696;2022-07-15T08:02:00;26.60;48.40
49711;DHT22;35602;44.534;18.696;2022-07-15T08:07:00;26.60;48.20
49711;DHT22;35602;44.534;18.696;2022-07-15T08:12:01;26.70;48.30
49711;DHT22;35602;44.534;18.696;2022-07-15T08:17:03;26.70;48.20
49711;DHT22;35602;44.534;18.696;2022-07-15T08:22:03;26.70;47.70
49711;DHT22;35602;44.534;18.696;2022-07-15T08:27:04;26.70;48.30
49711;DHT22;35602;44.534;18.696;2022-07-15T08:32:05;26.70;48.10
49711;DHT22;35602;44.534;18.696;2022-07-15T08:37:06;26.70;47.90
49711;DHT22;35602;44.534;18.696;2022-07-15T08:42:07;26.70;48.30
49711;DHT22;35602;44.534;18.696;2022-07-15T08:47:09;26.70;47.70
49711;DHT22;35602;44.534;18.696;2022-07-15T08:52:11;26.70;47.50
49711;DHT22;35602;44.534;18.696;2022-07-15T08:57:14;26.80;47.60
49711;DHT22;35602;44.534;18.696;2022-07-15T09:02:18;26.80;47.50
49711;DHT22;35602;44.534;18.696;2022-07-15T09:07:20;26.80;47.50
49711;DHT22;35602;44.534;18.696;2022-07-15T09:12:20;26.80;47.50
49711;DHT22;35602;44.534;18.696;2022-07-15T09:17:23;26.80;47.50
49711;DHT22;35602;44.534;18.696;2022-07-15T09:22:25;26.80;47.40
49711;DHT22;35602;44.534;18.696;2022-07-15T09:27:33;26.80;47.80
49711;DHT22;35602;44.534;18.696;2022-07-15T09:32:34;26.90;48.30
49711;DHT22;35602;44.534;18.696;2022-07-15T09:37:59;27.00;48.40
49711;DHT22;35602;44.534;18.696;2022-07-15T09:43:06;27.00;48.60
49711;DHT22;35602;44.534;18.696;2022-07-15T09:48:09;26.90;48.60
49711;DHT22;35602;44.534;18.696;2022-07-15T09:53:12;26.90;48.60
49711;DHT22;35602;44.534;18.696;2022-07-15T09:58:13;26.80;48.60
49711;DHT22;35602;44.534;18.696;2022-07-15T10:03:16;26.80;48.60
49711;DHT22;35602;44.534;18.696;2022-07-15T10:08:17;26.80;48.70
49711;DHT22;35602;44.534;18.696;2022-07-15T10:13:48;26.80;48.70
49711;DHT22;35602;44.534;18.696;2022-07-15T10:26:00;26.80;48.70
49711;DHT22;35602;44.534;18.696;2022-07-15T10:33:06;26.80;48.80
49711;DHT22;35602;44.534;18.696;2022-07-15T10:38:34;26.80;48.70
49711;DHT22;35602;44.534;18.696;2022-07-15T10:43:52;26.70;48.70
49711;DHT22;35602;44.534;18.696;2022-07-15T10:49:36;26.70;48.70
49711;DHT22;35602;44.534;18.696;2022-07-15T10:54:45;26.70;48.70
49711;DHT22;35602;44.534;18.696;2022-07-15T10:59:48;26.70;48.70
49711;DHT22;35602;44.534;18.696;2022-07-15T11:04:50;26.70;48.60
49711;DHT22;35602;44.534;18.696;2022-07-15T11:10:13;26.70;48.60
49711;DHT22;35602;44.534;18.696;2022-07-15T11:15:16;26.70;48.60
49711;DHT22;35602;44.534;18.696;2022-07-15T11:20:20;26.70;48.50
49711;DHT22;35602;44.534;18.696;2022-07-15T11:25:27;26.70;48.50
49711;DHT22;35602;44.534;18.696;2022-07-15T11:30:44;26.70;48.50
49711;DHT22;35602;44.534;18.696;2022-07-15T11:35:59;26.70;48.50
49711;DHT22;35602;44.534;18.696;2022-07-15T11:41:02;26.70;48.50
49711;DHT22;35602;44.534;18.696;2022-07-15T11:46:22;26.70;48.50
49711;DHT22;35602;44.534;18.696;2022-07-15T11:51:26;26.70;48.50
49711;DHT22;35602;44.534;18.696;2022-07-15T11:56:27;26.70;48.50
49711;DHT22;35602;44.534;18.696;2022-07-15T12:01:28;26.70;48.50
49711;DHT22;35602;44.534;18.696;2022-07-15T12:06:31;26.70;48.40
49711;DHT22;35602;44.534;18.696;2022-07-15T12:11:37;26.70;48.40
49711;DHT22;35602;44.534;18.696;2022-07-15T12:16:54;26.70;48.40
49711;DHT22;35602;44.534;18.696;2022-07-15T12:21:57;26.70;48.40
49711;DHT22;35602;44.534;18.696;2022-07-15T12:26:58;26.70;48.40
49711;DHT22;35602;44.534;18.696;2022-07-15T12:32:10;26.70;48.30
49711;DHT22;35602;44.534;18.696;2022-07-15T12:37:11;26.70;48.40
49711;DHT22;35602;44.534;18.696;2022-07-15T12:42:15;26.70;48.40
49711;DHT22;35602;44.534;18.696;2022-07-15T12:47:16;26.80;48.40
49711;DHT22;35602;44.534;18.696;2022-07-15T12:52:30;26.70;48.40
49711;DHT22;35602;44.534;18.696;2022-07-15T12:57:35;26.70;48.30
49711;DHT22;35602;44.534;18.696;2022-07-15T13:03:11;26.70;48.40
49711;DHT22;35602;44.534;18.696;2022-07-15T13:08:17;26.70;48.40
49711;DHT22;35602;44.534;18.696;2022-07-15T13:13:22;26.80;48.40
49711;DHT22;35602;44.534;18.696;2022-07-15T13:18:23;26.70;48.30
49711;DHT22;35602;44.534;18.696;2022-07-15T13:23:26;26.70;48.30
49711;DHT22;35602;44.534;18.696;2022-07-15T13:28:27;26.70;48.30
49711;DHT22;35602;44.534;18.696;2022-07-15T13:33:28;26.80;48.40
49711;DHT22;35602;44.534;18.696;2022-07-15T13:38:29;26.80;48.30
49711;DHT22;35602;44.534;18.696;2022-07-15T13:43:29;26.80;48.30
49711;DHT22;35602;44.534;18.696;2022-07-15T13:48:30;26.80;48.30
49711;DHT22;35602;44.534;18.696;2022-07-15T13:53:31;26.80;48.30
49711;DHT22;35602;44.534;18.696;2022-07-15T13:58:32;26.80;48.30
49711;DHT22;35602;44.534;18.696;2022-07-15T14:03:33;26.80;48.30
49711;DHT22;35602;44.534;18.696;2022-07-15T14:08:34;26.80;48.30
49711;DHT22;35602;44.534;18.696;2022-07-15T14:13:35;26.80;48.20
49711;DHT22;35602;44.534;18.696;2022-07-15T14:18:36;26.80;48.20
49711;DHT22;35602;44.534;18.696;2022-07-15T14:23:48;26.80;48.30
49711;DHT22;35602;44.534;18.696;2022-07-15T14:28:49;26.80;48.20
49711;DHT22;35602;44.534;18.696;2022-07-15T14:33:50;26.80;48.20
49711;DHT22;35602;44.534;18.696;2022-07-15T14:38:51;26.80;48.20
49711;DHT22;35602;44.534;18.696;2022-07-15T14:43:52;26.80;48.20
49711;DHT22;35602;44.534;18.696;2022-07-15T14:48:54;26.80;48.10
49711;DHT22;35602;44.534;18.696;2022-07-15T14:53:55;26.80;48.10
49711;DHT22;35602;44.534;18.696;2022-07-15T14:58:56;26.80;48.10
49711;DHT22;35602;44.534;18.696;2022-07-15T15:03:57;26.90;48.20
49711;DHT22;35602;44.534;18.696;2022-07-15T15:08:57;26.80;48.10
49711;DHT22;35602;44.534;18.696;2022-07-15T15:13:59;26.80;48.20
49711;DHT22;35602;44.534;18.696;2022-07-15T15:19:02;26.80;48.10
49711;DHT22;35602;44.534;18.696;2022-07-15T15:24:03;26.90;48.90
49711;DHT22;35602;44.534;18.696;2022-07-15T15:29:06;26.90;48.20
49711;DHT22;35602;44.534;18.696;2022-07-15T15:34:07;26.80;48.20
49711;DHT22;35602;44.534;18.696;2022-07-15T15:39:08;26.80;48.20
49711;DHT22;35602;44.534;18.696;2022-07-15T15:44:09;26.80;48.20
49711;DHT22;35602;44.534;18.696;2022-07-15T15:49:10;26.90;48.20
49711;DHT22;35602;44.534;18.696;2022-07-15T15:54:11;26.90;48.30
49711;DHT22;35602;44.534;18.696;2022-07-15T15:59:12;26.80;48.20
49711;DHT22;35602;44.534;18.696;2022-07-15T16:04:13;26.90;48.30
49711;DHT22;35602;44.534;18.696;2022-07-15T16:09:14;26.90;48.30
49711;DHT22;35602;44.534;18.696;2022-07-15T16:14:18;26.90;48.40
49711;DHT22;35602;44.534;18.696;2022-07-15T16:19:19;26.90;48.30
49711;DHT22;35602;44.534;18.696;2022-07-15T16:24:19;26.90;48.30
49711;DHT22;35602;44.534;18.696;2022-07-15T16:29:20;26.90;48.30
49711;DHT22;35602;44.534;18.696;2022-07-15T16:34:21;26.90;48.30
49711;DHT22;35602;44.534;18.696;2022-07-15T16:39:22;26.90;48.30
49711;DHT22;35602;44.534;18.696;2022-07-15T16:44:23;26.90;48.40
49711;DHT22;35602;44.534;18.696;2022-07-15T16:49:24;26.90;48.50
49711;DHT22;35602;44.534;18.696;2022-07-15T16:54:25;26.90;48.40
49711;DHT22;35602;44.534;18.696;2022-07-15T16:59:27;26.90;48.40
49711;DHT22;35602;44.534;18.696;2022-07-15T17:04:28;26.90;48.50
49711;DHT22;35602;44.534;18.696;2022-07-15T17:09:28;26.90;48.40
49711;DHT22;35602;44.534;18.696;2022-07-15T17:14:29;26.90;48.50
49711;DHT22;35602;44.534;18.696;2022-07-15T17:19:30;26.90;48.50
49711;DHT22;35602;44.534;18.696;2022-07-15T17:24:31;26.90;48.50
49711;DHT22;35602;44.534;18.696;2022-07-15T17:29:32;26.90;48.50
49711;DHT22;35602;44.534;18.696;2022-07-15T17:34:33;26.90;48.50
49711;DHT22;35602;44.534;18.696;2022-07-15T17:39:34;26.90;49.20
49711;DHT22;35602;44.534;18.696;2022-07-15T17:44:34;26.90;48.50
49711;DHT22;35602;44.534;18.696;2022-07-15T17:49:35;26.90;48.50
49711;DHT22;35602;44.534;18.696;2022-07-15T17:54:36;26.90;48.50
49711;DHT22;35602;44.534;18.696;2022-07-15T17:59:37;26.90;48.50
49711;DHT22;35602;44.534;18.696;2022-07-15T18:04:39;26.90;48.50
49711;DHT22;35602;44.534;18.696;2022-07-15T18:09:40;26.90;48.50
49711;DHT22;35602;44.534;18.696;2022-07-15T18:14:41;26.90;48.60
49711;DHT22;35602;44.534;18.696;2022-07-15T18:19:42;26.90;48.60
49711;DHT22;35602;44.534;18.696;2022-07-15T18:24:43;26.90;48.50
49711;DHT22;35602;44.534;18.696;2022-07-15T18:29:45;26.90;48.50
49711;DHT22;35602;44.534;18.696;2022-07-15T18:34:46;26.90;48.40
49711;DHT22;35602;44.534;18.696;2022-07-15T18:39:47;26.90;48.50
49711;DHT22;35602;44.534;18.696;2022-07-15T18:44:47;27.00;48.50
49711;DHT22;35602;44.534;18.696;2022-07-15T18:49:48;26.90;48.40
49711;DHT22;35602;44.534;18.696;2022-07-15T18:54:49;26.90;48.40
49711;DHT22;35602;44.534;18.696;2022-07-15T18:59:50;27.00;48.50
49711;DHT22;35602;44.534;18.696;2022-07-15T19:04:50;26.90;48.50
49711;DHT22;35602;44.534;18.696;2022-07-15T19:09:51;26.90;48.40
49711;DHT22;35602;44.534;18.696;2022-07-15T19:14:52;26.90;48.40
49711;DHT22;35602;44.534;18.696;2022-07-15T19:19:53;26.90;48.50
49711;DHT22;35602;44.534;18.696;2022-07-15T19:24:54;26.90;48.50
49711;DHT22;35602;44.534;18.696;2022-07-15T19:29:56;27.00;48.60
49711;DHT22;35602;44.534;18.696;2022-07-15T19:34:57;26.90;48.50
49711;DHT22;35602;44.534;18.696;2022-07-15T19:40:00;26.90;48.40
49711;DHT22;35602;44.534;18.696;2022-07-15T19:45:01;26.90;48.40
49711;DHT22;35602;44.534;18.696;2022-07-15T19:50:04;26.90;48.40
49711;DHT22;35602;44.534;18.696;2022-07-15T19:55:06;26.90;48.50
49711;DHT22;35602;44.534;18.696;2022-07-15T20:00:09;27.00;48.50
49711;DHT22;35602;44.534;18.696;2022-07-15T20:05:17;26.90;48.40
49711;DHT22;35602;44.534;18.696;2022-07-15T20:10:19;26.90;48.40
49711;DHT22;35602;44.534;18.696;2022-07-15T20:15:20;26.90;48.30
49711;DHT22;35602;44.534;18.696;2022-07-15T20:20:22;27.00;48.40
49711;DHT22;35602;44.534;18.696;2022-07-15T20:25:23;26.90;48.30
49711;DHT22;35602;44.534;18.696;2022-07-15T20:30:24;27.00;48.30
49711;DHT22;35602;44.534;18.696;2022-07-15T20:35:25;27.00;48.40
49711;DHT22;35602;44.534;18.696;2022-07-15T20:40:27;26.90;48.20
49711;DHT22;35602;44.534;18.696;2022-07-15T20:45:27;26.90;48.20
49711;DHT22;35602;44.534;18.696;2022-07-15T20:50:28;26.90;48.10
49711;DHT22;35602;44.534;18.696;2022-07-15T20:55:29;26.90;48.10
49711;DHT22;35602;44.534;18.696;2022-07-15T21:00:30;26.90;48.10
49711;DHT22;35602;44.534;18.696;2022-07-15T21:05:31;26.90;48.10
49711;DHT22;35602;44.534;18.696;2022-07-15T21:10:32;26.90;48.10
49711;DHT22;35602;44.534;18.696;2022-07-15T21:15:33;26.90;48.00
49711;DHT22;35602;44.534;18.696;2022-07-15T21:20:34;26.90;48.10
49711;DHT22;35602;44.534;18.696;2022-07-15T21:25:35;26.90;48.00
49711;DHT22;35602;44.534;18.696;2022-07-15T21:30:54;26.90;48.10
49711;DHT22;35602;44.534;18.696;2022-07-15T21:35:55;26.90;48.00
49711;DHT22;35602;44.534;18.696;2022-07-15T21:40:57;27.00;48.00
49711;DHT22;35602;44.534;18.696;2022-07-15T21:45:58;26.90;47.90
49711;DHT22;35602;44.534;18.696;2022-07-15T21:50:59;26.90;47.90
49711;DHT22;35602;44.534;18.696;2022-07-15T21:56:00;26.90;47.90
49711;DHT22;35602;44.534;18.696;2022-07-15T22:01:01;26.90;48.00
49711;DHT22;35602;44.534;18.696;2022-07-15T22:06:02;26.90;48.00
49711;DHT22;35602;44.534;18.696;2022-07-15T22:11:03;26.90;48.00
49711;DHT22;35602;44.534;18.696;2022-07-15T22:16:05;26.90;47.90
49711;DHT22;35602;44.534;18.696;2022-07-15T22:21:07;26.90;47.90
49711;DHT22;35602;44.534;18.696;2022-07-15T22:26:09;26.90;48.00
49711;DHT22;35602;44.534;18.696;2022-07-15T22:31:10;26.90;48.10
49711;DHT22;35602;44.534;18.696;2022-07-15T22:36:11;26.90;48.10
49711;DHT22;35602;44.534;18.696;2022-07-15T22:41:12;26.90;48.90
49711;DHT22;35602;44.534;18.696;2022-07-15T22:46:13;26.90;48.10
49711;DHT22;35602;44.534;18.696;2022-07-15T22:51:14;26.90;48.20
49711;DHT22;35602;44.534;18.696;2022-07-15T22:56:15;26.90;48.20
49711;DHT22;35602;44.534;18.696;2022-07-15T23:01:16;26.90;48.20
49711;DHT22;35602;44.534;18.696;2022-07-15T23:06:17;26.90;48.20
49711;DHT22;35602;44.534;18.696;2022-07-15T23:11:18;26.90;48.30
49711;DHT22;35602;44.534;18.696;2022-07-15T23:16:18;26.90;48.30
49711;DHT22;35602;44.534;18.696;2022-07-15T23:21:19;26.90;48.30
49711;DHT22;35602;44.534;18.696;2022-07-15T23:26:20;26.90;48.40
49711;DHT22;35602;44.534;18.696;2022-07-15T23:31:21;26.90;48.40
49711;DHT22;35602;44.534;18.696;2022-07-15T23:36:22;26.90;48.40
49711;DHT22;35602;44.534;18.696;2022-07-15T23:41:23;26.90;48.50
49711;DHT22;35602;44.534;18.696;2022-07-15T23:46:23;26.90;48.50
49711;DHT22;35602;44.534;18.696;2022-07-15T23:51:24;26.90;48.50
49711;DHT22;35602;44.534;18.696;2022-07-15T23:56:25;26.90;48.40
